Time;durP1;ratioP1;P1;durP2;ratioP2;P2;SDS_P1;SDS_P2;PMS_P1;PMS_P2;Temp;Humidity;BMP_temperature;BMP_pressure;BME280_temperature;BME280_humidity;BME280_pressure;Samples;Min_cycle;Max_cycle;Signal;HPM_P1;HPM_P2
2022/06/03 04:02:01;;;;;;;6.70;3.50;;;16.70;99.90;;;;;;5534517;23;20605;-63
2022/06/03 04:05:01;;;;;;;3.60;3.40;;;16.70;99.90;;;;;;5015336;28;20437;-64
2022/06/03 04:08:09;;;;;;;3.80;3.50;;;16.70;99.90;;;;;;5013003;28;20457;-64
2022/06/03 04:11:04;;;;;;;3.77;3.47;;;16.60;99.90;;;;;;5014989;28;20473;-64
2022/06/03 04:14:18;;;;;;;3.80;3.50;;;16.50;99.90;;;;;;5014779;28;20904;-64
2022/06/03 04:17:13;;;;;;;3.70;3.37;;;16.60;99.90;;;;;;5014952;28;20437;-64
2022/06/03 04:20:15;;;;;;;3.90;3.70;;;16.60;99.90;;;;;;5014803;28;20452;-64
2022/06/03 04:23:11;;;;;;;3.53;3.33;;;16.60;99.90;;;;;;5012130;28;20479;-64
2022/06/03 04:26:32;;;;;;;4.03;3.73;;;16.50;99.90;;;;;;5014763;28;20437;-65
2022/06/03 04:29:34;;;;;;;4.40;3.73;;;16.50;99.90;;;;;;5014590;28;20772;-64
2022/06/03 04:32:28;;;;;;;4.53;3.87;;;16.50;99.90;;;;;;5014704;28;20472;-64
2022/06/03 04:35:37;;;;;;;4.70;4.50;;;16.50;99.90;;;;;;5014229;28;20854;-65
2022/06/03 04:38:39;;;;;;;4.53;4.23;;;16.50;99.90;;;;;;5014551;28;20440;-64
2022/06/03 04:41:56;;;;;;;4.50;4.10;;;16.50;99.90;;;;;;5014249;28;20476;-64
2022/06/03 04:45:08;;;;;;;5.33;4.93;;;16.50;99.90;;;;;;5014741;28;20543;-64
2022/06/03 04:48:08;;;;;;;4.00;3.80;;;16.40;99.90;;;;;;5015097;28;20773;-64
2022/06/03 04:51:09;;;;;;;4.80;4.50;;;16.50;99.90;;;;;;5014117;28;21002;-64
2022/06/03 04:54:13;;;;;;;4.80;4.50;;;16.60;99.90;;;;;;5014358;28;20437;-64
2022/06/03 04:57:20;;;;;;;6.07;4.03;;;16.60;99.90;;;;;;5014372;28;20792;-65
2022/06/03 05:00:21;;;;;;;4.60;4.27;;;16.70;99.90;;;;;;5014207;28;20448;-64
2022/06/03 05:03:32;;;;;;;6.17;4.43;;;16.70;99.90;;;;;;5014236;28;20552;-64
2022/06/03 05:06:59;;;;;;;4.70;4.40;;;16.80;99.90;;;;;;5009805;28;20463;-63
2022/06/03 05:10:16;;;;;;;4.70;4.50;;;17.00;99.90;;;;;;4972702;28;20443;-64
2022/06/03 05:13:22;;;;;;;4.97;4.57;;;17.00;99.90;;;;;;4948695;29;20524;-65
2022/06/03 05:16:35;;;;;;;7.60;4.13;;;17.10;99.90;;;;;;5014759;28;20444;-64
2022/06/03 05:19:39;;;;;;;5.60;5.20;;;17.20;99.90;;;;;;5014137;28;20447;-64
2022/06/03 05:22:38;;;;;;;4.63;4.43;;;17.30;99.90;;;;;;5013877;28;20538;-64
2022/06/03 05:25:55;;;;;;;5.20;4.90;;;17.30;99.90;;;;;;5014214;28;20762;-64
2022/06/03 05:29:01;;;;;;;6.00;5.03;;;17.30;99.90;;;;;;5014206;28;20444;-64
2022/06/03 05:32:07;;;;;;;5.97;5.47;;;17.40;99.90;;;;;;5014201;28;20495;-64
2022/06/03 05:34:54;;;;;;;5.47;5.17;;;17.40;99.90;;;;;;5015985;28;20436;-64
2022/06/03 05:37:52;;;;;;;5.43;5.03;;;17.50;99.90;;;;;;5017700;28;20911;-65
2022/06/03 05:40:42;;;;;;;6.57;6.07;;;17.60;99.90;;;;;;5017869;28;20809;-64
2022/06/03 05:43:41;;;;;;;6.20;5.70;;;17.70;99.90;;;;;;5017904;28;20465;-64
2022/06/03 05:46:24;;;;;;;7.77;7.17;;;17.80;99.90;;;;;;5017557;28;20825;-64
2022/06/03 05:49:07;;;;;;;11.00;6.60;;;17.80;99.90;;;;;;5017610;28;20436;-64
2022/06/03 05:52:16;;;;;;;6.60;6.20;;;17.90;99.90;;;;;;5017541;28;20495;-64
2022/06/03 05:54:51;;;;;;;8.20;7.57;;;18.10;99.90;;;;;;5007031;28;20463;-65
2022/06/03 05:57:30;;;;;;;8.70;7.90;;;18.30;99.90;;;;;;5017473;28;20440;-66
2022/06/03 06:00:20;;;;;;;9.40;8.60;;;18.40;99.90;;;;;;5017513;28;20441;-65
2022/06/03 06:02:54;;;;;;;9.53;8.83;;;18.50;99.90;;;;;;5003989;28;20489;-64
2022/06/03 06:05:36;;;;;;;8.80;8.20;;;18.60;99.90;;;;;;5017088;28;20444;-64
2022/06/03 06:08:15;;;;;;;8.37;7.77;;;18.70;99.90;;;;;;5017334;28;20445;-64
2022/06/03 06:10:52;;;;;;;9.37;8.63;;;18.90;99.90;;;;;;5017218;28;20476;-65
2022/06/03 06:13:39;;;;;;;9.03;8.30;;;18.90;99.90;;;;;;5017468;28;20429;-65
2022/06/03 06:16:11;;;;;;;9.43;8.73;;;19.00;99.90;;;;;;5017627;28;20444;-64
2022/06/03 06:18:52;;;;;;;9.80;9.00;;;19.20;99.90;;;;;;5017733;28;20483;-64
2022/06/03 06:21:37;;;;;;;9.50;8.50;;;19.40;99.90;;;;;;5018256;28;20473;-65
2022/06/03 06:24:13;;;;;;;8.40;7.47;;;19.70;99.90;;;;;;5018022;28;20464;-65
2022/06/03 06:27:33;;;;;;;10.00;7.60;;;19.90;99.90;;;;;;5020889;28;20436;-65
2022/06/03 06:30:18;;;;;;;11.33;7.60;;;20.10;99.90;;;;;;5022171;28;20457;-64
2022/06/03 06:33:17;;;;;;;8.43;7.10;;;20.50;99.90;;;;;;5019321;28;20516;-64
2022/06/03 06:36:25;;;;;;;8.40;6.70;;;20.60;99.90;;;;;;5013090;28;20979;-64
2022/06/03 06:39:09;;;;;;;7.20;6.70;;;20.90;99.90;;;;;;5016393;28;20459;-65
2022/06/03 06:41:46;;;;;;;6.80;6.33;;;21.10;99.90;;;;;;5016636;28;20472;-65
2022/06/03 06:44:20;;;;;;;9.13;8.43;;;21.50;99.90;;;;;;5016652;28;20441;-66
2022/06/03 06:46:57;;;;;;;7.70;7.20;;;21.80;99.90;;;;;;5016149;28;20452;-64
2022/06/03 06:49:28;;;;;;;7.77;7.17;;;22.00;99.90;;;;;;5017364;28;20503;-65
2022/06/03 06:52:22;;;;;;;7.00;6.40;;;22.20;99.90;;;;;;5016547;28;20472;-64
2022/06/03 06:55:00;;;;;;;6.73;6.30;;;22.60;99.90;;;;;;5016483;28;20468;-64
2022/06/03 06:57:32;;;;;;;7.57;6.97;;;22.90;99.90;;;;;;5016545;28;20432;-65
2022/06/03 07:00:05;;;;;;;7.83;7.27;;;23.20;99.90;;;;;;5016298;28;20515;-63
2022/06/03 07:02:36;;;;;;;6.70;6.20;;;23.50;99.90;;;;;;5015890;28;20859;-64
2022/06/03 07:05:09;;;;;;;10.07;6.40;;;23.70;99.90;;;;;;5016527;28;20495;-64
2022/06/03 07:07:46;;;;;;;7.33;6.67;;;24.10;99.90;;;;;;5016436;28;20500;-64
2022/06/03 07:10:20;;;;;;;7.10;6.50;;;24.40;99.90;;;;;;5016190;28;20540;-64
2022/06/03 07:12:54;;;;;;;6.40;6.00;;;24.90;99.90;;;;;;5016191;28;20446;-65
2022/06/03 07:15:26;;;;;;;7.67;6.13;;;25.50;98.40;;;;;;5016378;28;20488;-65
2022/06/03 07:21:02;;;;;;;6.67;6.00;;;26.50;95.60;;;;;;5015754;28;20827;-65
2022/06/03 07:23:35;;;;;;;6.57;6.10;;;27.10;93.30;;;;;;5015917;28;20515;-66
2022/06/03 07:26:07;;;;;;;6.87;6.10;;;27.70;91.80;;;;;;5015853;28;20437;-65
2022/06/03 07:28:43;;;;;;;9.27;6.30;;;28.10;90.80;;;;;;5015997;28;20464;-65
2022/06/03 07:31:18;;;;;;;8.73;6.40;;;28.70;88.40;;;;;;5018312;28;20472;-65
2022/06/03 07:33:55;;;;;;;6.17;5.67;;;29.00;85.20;;;;;;5017756;28;20437;-65
2022/06/03 07:36:30;;;;;;;6.53;5.90;;;29.20;86.20;;;;;;5016117;28;20909;-65
2022/06/03 07:39:03;;;;;;;7.27;6.33;;;29.40;82.10;;;;;;5015755;28;20845;-65
2022/06/03 07:41:37;;;;;;;6.10;5.60;;;29.60;80.00;;;;;;5015515;28;20563;-64
2022/06/03 07:44:14;;;;;;;6.00;5.60;;;29.50;80.50;;;;;;5015560;28;20460;-65
2022/06/03 07:46:49;;;;;;;6.40;5.87;;;29.90;79.50;;;;;;5015650;28;20444;-65
2022/06/03 07:49:17;;;;;;;6.17;5.57;;;30.30;77.50;;;;;;5015510;28;20441;-65
2022/06/03 07:51:49;;;;;;;6.87;6.37;;;30.70;76.60;;;;;;5015243;28;20472;-65
2022/06/03 07:54:26;;;;;;;6.53;6.03;;;30.90;76.40;;;;;;5015236;28;20438;-65
2022/06/03 07:57:00;;;;;;;6.30;5.90;;;31.20;75.40;;;;;;5014924;28;20441;-65
2022/06/03 07:59:33;;;;;;;6.63;6.20;;;31.20;75.00;;;;;;5014859;28;20440;-65
2022/06/03 08:02:01;;;;;;;6.50;5.90;;;31.40;73.10;;;;;;5014966;28;20484;-65
2022/06/03 08:04:31;;;;;;;5.73;5.33;;;31.50;72.80;;;;;;5015133;28;20515;-65
2022/06/03 08:12:30;;;;;;;5.77;5.20;;;32.00;69.90;;;;;;5014882;28;20448;-65
2022/06/03 08:14:59;;;;;;;5.50;5.07;;;32.20;69.10;;;;;;5014943;28;20452;-64
2022/06/03 08:17:27;;;;;;;5.20;4.70;;;32.40;70.20;;;;;;5014556;28;20453;-65
2022/06/03 08:19:55;;;;;;;5.37;5.07;;;32.70;69.60;;;;;;5014769;28;20464;-65
2022/06/03 08:22:25;;;;;;;6.20;5.70;;;33.10;66.80;;;;;;5014497;28;20485;-65
2022/06/03 08:24:55;;;;;;;5.10;4.70;;;33.10;65.50;;;;;;5014779;28;20460;-65
2022/06/03 08:27:26;;;;;;;5.87;5.30;;;33.20;65.80;;;;;;5014702;28;20441;-65
2022/06/03 08:29:59;;;;;;;5.87;5.40;;;33.20;64.50;;;;;;5014766;28;20441;-65
2022/06/03 08:32:34;;;;;;;5.30;4.90;;;33.40;64.30;;;;;;5014619;28;20807;-66
2022/06/03 08:35:05;;;;;;;6.20;4.87;;;33.50;65.80;;;;;;5015471;28;20432;-65
2022/06/03 08:37:35;;;;;;;4.10;3.80;;;33.60;65.70;;;;;;5014657;28;20447;-65
2022/06/03 08:40:21;;;;;;;5.43;4.73;;;33.90;64.40;;;;;;5014687;28;20441;-65
2022/06/03 08:42:53;;;;;;;5.73;4.10;;;33.80;63.30;;;;;;5014388;28;20821;-65
2022/06/03 08:45:34;;;;;;;4.30;4.00;;;33.90;64.20;;;;;;5014514;28;20455;-65
2022/06/03 08:48:11;;;;;;;5.10;4.80;;;34.50;63.10;;;;;;5014569;28;20444;-65
2022/06/03 08:50:42;;;;;;;4.47;4.07;;;35.10;61.90;;;;;;5014541;28;20515;-66
2022/06/03 08:53:16;;;;;;;4.00;3.70;;;35.50;59.30;;;;;;5014529;28;20444;-66
2022/06/03 08:55:47;;;;;;;4.17;3.97;;;35.40;60.00;;;;;;5014388;28;20440;-66
2022/06/03 08:58:24;;;;;;;4.27;3.97;;;35.00;60.50;;;;;;5014512;28;20437;-65
2022/06/03 09:01:00;;;;;;;4.10;3.90;;;34.80;59.90;;;;;;5014016;28;20480;-65
2022/06/03 09:03:33;;;;;;;5.20;4.20;;;34.80;60.60;;;;;;5014064;28;20962;-65
2022/06/03 09:06:06;;;;;;;4.50;4.20;;;34.30;59.90;;;;;;5014560;28;20453;-64
2022/06/03 09:08:38;;;;;;;4.70;4.40;;;33.90;60.50;;;;;;5014057;28;20441;-66
2022/06/03 09:11:14;;;;;;;4.00;3.80;;;33.70;60.60;;;;;;5013956;28;20472;-65
2022/06/03 09:13:45;;;;;;;3.30;3.10;;;33.90;62.10;;;;;;5014659;28;20440;-65
2022/06/03 09:16:15;;;;;;;3.97;3.77;;;34.10;63.10;;;;;;5014727;28;20857;-65
2022/06/03 09:18:47;;;;;;;3.87;3.57;;;34.40;60.10;;;;;;5014321;28;20994;-65
2022/06/03 09:21:18;;;;;;;3.90;3.70;;;34.70;59.40;;;;;;5014621;28;20829;-66
2022/06/03 09:23:49;;;;;;;4.63;4.00;;;34.80;62.30;;;;;;5022214;28;20471;-65
2022/06/03 09:26:20;;;;;;;4.60;4.10;;;34.80;59.60;;;;;;5026909;28;20433;-66
2022/06/03 09:28:48;;;;;;;7.10;3.97;;;35.60;59.80;;;;;;5026336;28;20440;-66
2022/06/03 09:31:16;;;;;;;4.93;4.50;;;35.70;57.60;;;;;;5015680;28;20473;-66
2022/06/03 09:33:46;;;;;;;4.40;4.00;;;36.00;56.20;;;;;;5014803;28;20448;-66
2022/06/03 09:36:18;;;;;;;7.43;3.40;;;35.90;58.00;;;;;;5014522;28;20449;-66
2022/06/03 09:38:49;;;;;;;4.80;3.50;;;35.20;58.20;;;;;;5014548;28;20499;-65
2022/06/03 09:41:18;;;;;;;6.10;3.63;;;34.70;58.20;;;;;;5014454;28;20546;-65
2022/06/03 09:43:50;;;;;;;4.67;3.77;;;34.80;57.90;;;;;;5013874;28;20995;-65
2022/06/03 09:46:18;;;;;;;5.43;3.47;;;34.70;58.10;;;;;;5014386;28;20440;-66
2022/06/03 09:48:47;;;;;;;3.30;3.00;;;35.00;59.20;;;;;;5013877;28;20823;-65
2022/06/03 09:51:19;;;;;;;2.93;2.83;;;35.30;57.60;;;;;;5013933;28;20472;-66
2022/06/03 09:53:47;;;;;;;3.00;2.80;;;35.30;59.10;;;;;;5014160;28;20440;-66
2022/06/03 09:56:20;;;;;;;3.40;3.17;;;36.00;58.00;;;;;;5014112;28;20499;-65
2022/06/03 09:58:49;;;;;;;2.83;2.73;;;36.50;56.90;;;;;;5013932;28;20452;-66
2022/06/03 10:01:16;;;;;;;3.03;2.83;;;36.70;56.80;;;;;;5013971;28;20574;-66
2022/06/03 10:03:43;;;;;;;2.97;2.87;;;36.80;55.70;;;;;;5014267;28;20476;-66
2022/06/03 10:06:42;;;;;;;2.73;2.63;;;36.90;55.70;;;;;;5014065;28;20480;-66
2022/06/03 10:14:24;;;;;;;2.93;2.83;;;37.90;52.90;;;;;;5002420;28;20447;-67
2022/06/03 10:16:51;;;;;;;3.40;3.20;;;37.60;52.50;;;;;;5013852;28;20456;-66
2022/06/03 10:19:18;;;;;;;3.63;3.33;;;37.10;54.10;;;;;;5014147;28;20817;-66
2022/06/03 10:21:52;;;;;;;3.70;3.40;;;36.30;54.90;;;;;;5016279;28;20476;-66
2022/06/03 10:24:22;;;;;;;2.83;2.73;;;35.50;55.90;;;;;;5017484;28;20460;-66
2022/06/03 10:26:51;;;;;;;4.80;3.63;;;34.90;57.70;;;;;;5018327;28;20495;-65
2022/06/03 10:29:20;;;;;;;3.23;3.13;;;34.50;57.90;;;;;;5017201;28;20900;-66
2022/06/03 10:31:52;;;;;;;3.00;2.80;;;34.40;57.90;;;;;;5017602;28;20481;-66
2022/06/03 10:34:23;;;;;;;3.30;3.20;;;34.10;58.30;;;;;;5018425;28;20448;-66
2022/06/03 10:36:54;;;;;;;3.30;3.10;;;34.40;59.30;;;;;;5017756;28;20471;-65
2022/06/03 10:39:27;;;;;;;3.90;3.53;;;34.70;59.30;;;;;;5019345;28;20445;-65
2022/06/03 10:41:58;;;;;;;3.40;3.30;;;35.10;57.10;;;;;;5018177;28;20566;-66
2022/06/03 10:44:27;;;;;;;2.80;2.70;;;35.50;56.80;;;;;;5017554;28;21049;-65
2022/06/03 10:46:56;;;;;;;4.10;3.20;;;35.70;56.50;;;;;;5018002;28;20456;-65
2022/06/03 10:49:24;;;;;;;3.73;3.40;;;35.60;56.50;;;;;;5018208;28;20459;-65
2022/06/03 11:03:07;;;;;;;2.83;2.63;;;34.30;57.80;;;;;;5017019;28;20463;-65
2022/06/03 11:05:36;;;;;;;3.80;3.33;;;34.00;58.20;;;;;;5017522;28;20460;-65
2022/06/03 11:08:07;;;;;;;6.10;3.60;;;33.70;56.60;;;;;;5016635;28;20460;-66
2022/06/03 11:10:39;;;;;;;4.40;3.60;;;33.60;58.70;;;;;;5016399;28;20511;-65
2022/06/03 11:13:09;;;;;;;3.20;2.80;;;33.00;58.40;;;;;;5016059;28;20503;-66
2022/06/03 11:15:38;;;;;;;5.00;3.17;;;32.70;59.50;;;;;;5016448;28;20448;-66
2022/06/03 11:18:16;;;;;;;3.23;2.93;;;32.30;61.80;;;;;;5016199;28;20453;-65
2022/06/03 11:20:44;;;;;;;3.63;3.27;;;32.10;63.00;;;;;;5016048;28;20481;-65
2022/06/03 11:23:13;;;;;;;3.60;3.40;;;31.80;64.50;;;;;;5016034;28;20460;-65
2022/06/03 11:25:43;;;;;;;3.67;3.47;;;31.30;64.50;;;;;;5015891;28;20832;-65
2022/06/03 11:28:14;;;;;;;4.00;3.60;;;30.80;66.30;;;;;;5016269;28;20464;-65
2022/06/03 11:30:46;;;;;;;4.47;4.03;;;30.40;67.00;;;;;;5017217;28;20484;-65
2022/06/03 11:33:20;;;;;;;4.97;4.13;;;30.10;68.60;;;;;;5017002;28;20922;-65
2022/06/03 11:35:51;;;;;;;5.43;4.07;;;29.70;69.20;;;;;;5016181;28;20437;-65
2022/06/03 11:38:29;;;;;;;5.00;4.60;;;29.40;69.70;;;;;;5015819;28;20449;-65
2022/06/03 11:41:01;;;;;;;7.40;4.10;;;29.10;70.80;;;;;;5015550;28;20523;-65
2022/06/03 11:43:34;;;;;;;4.07;3.70;;;28.80;71.90;;;;;;5015358;28;20555;-65
2022/06/03 11:46:05;;;;;;;4.07;3.77;;;28.60;73.10;;;;;;5015234;28;20779;-65
2022/06/03 11:48:35;;;;;;;4.57;3.90;;;28.30;74.00;;;;;;5015082;28;20445;-64
2022/06/03 11:51:03;;;;;;;6.73;4.10;;;28.10;74.80;;;;;;5016015;28;20473;-64
2022/06/03 11:53:34;;;;;;;4.40;4.10;;;27.90;75.20;;;;;;5015287;28;20459;-65
2022/06/03 11:56:04;;;;;;;4.27;3.93;;;27.70;76.30;;;;;;5015318;28;20479;-65
2022/06/03 11:58:45;;;;;;;8.40;3.90;;;27.60;76.90;;;;;;5015331;28;20449;-65
2022/06/03 12:01:16;;;;;;;4.37;3.60;;;27.50;78.00;;;;;;5014989;28;20485;-65
2022/06/03 12:03:51;;;;;;;4.93;3.73;;;27.30;78.30;;;;;;5015215;28;20515;-65
2022/06/03 12:06:26;;;;;;;6.33;3.90;;;27.20;80.50;;;;;;5015273;28;20491;-65
2022/06/03 12:08:58;;;;;;;5.93;4.37;;;27.10;82.80;;;;;;5014803;28;20433;-65
2022/06/03 12:14:29;;;;;;;7.43;5.13;;;27.00;89.30;;;;;;5014857;28;20564;-65
2022/06/03 12:16:59;;;;;;;6.93;5.17;;;26.90;93.60;;;;;;5015010;28;20433;-65
2022/06/03 12:19:41;;;;;;;5.50;5.00;;;26.90;94.30;;;;;;5014985;28;20441;-65
2022/06/03 12:22:22;;;;;;;13.73;5.67;;;27.10;98.70;;;;;;5015172;28;20473;-65
2022/06/03 12:24:54;;;;;;;7.17;5.57;;;27.30;99.90;;;;;;5015291;28;20457;-64
2022/06/03 12:27:28;;;;;;;5.73;5.27;;;27.70;99.90;;;;;;5015058;28;20440;-65
2022/06/03 12:30:32;;;;;;;6.63;5.20;;;28.00;99.90;;;;;;5015029;28;20797;-64
2022/06/03 12:33:03;;;;;;;5.93;5.43;;;28.30;99.90;;;;;;5015227;28;20437;-65
2022/06/03 12:36:04;;;;;;;5.10;4.70;;;28.60;99.90;;;;;;5015017;28;20461;-64
2022/06/03 12:38:53;;;;;;;4.80;4.60;;;28.70;98.90;;;;;;5015177;28;20437;-65
2022/06/03 12:42:12;;;;;;;6.60;4.73;;;28.60;97.20;;;;;;5014976;28;20519;-66
2022/06/03 12:45:13;;;;;;;5.77;5.33;;;28.50;96.70;;;;;;5014287;28;20465;-65
2022/06/03 12:47:47;;;;;;;5.17;4.87;;;28.20;99.90;;;;;;5014266;28;20449;-65
2022/06/03 12:50:34;;;;;;;5.20;4.80;;;28.20;99.90;;;;;;5014771;28;20904;-64
2022/06/03 12:53:18;;;;;;;5.20;4.90;;;28.20;99.90;;;;;;5014433;28;20957;-65
2022/06/03 12:55:51;;;;;;;5.23;4.77;;;28.30;99.40;;;;;;5013018;28;20511;-65
2022/06/03 12:58:50;;;;;;;6.27;5.00;;;28.20;97.90;;;;;;5015016;28;20437;-66
2022/06/03 13:01:45;;;;;;;6.10;4.40;;;28.00;99.10;;;;;;5003965;28;20550;-66
2022/06/03 13:04:46;;;;;;;5.07;4.73;;;28.00;97.70;;;;;;5014391;28;20460;-65
2022/06/03 13:07:39;;;;;;;5.27;4.50;;;27.80;97.70;;;;;;5014239;28;20979;-65
2022/06/03 13:10:26;;;;;;;7.63;4.47;;;27.70;97.20;;;;;;5014669;28;20532;-65
2022/06/03 13:12:55;;;;;;;5.40;4.90;;;27.60;98.20;;;;;;5013986;28;20432;-65
2022/06/03 13:15:52;;;;;;;5.33;4.83;;;27.50;98.90;;;;;;5014030;28;20451;-65
2022/06/03 13:18:41;;;;;;;5.30;5.00;;;27.50;98.70;;;;;;4972763;28;20495;-65
2022/06/03 13:21:23;;;;;;;5.00;4.60;;;27.50;98.20;;;;;;5010830;28;20473;-64
2022/06/03 13:24:20;;;;;;;5.27;4.60;;;27.50;97.50;;;;;;5013753;28;20828;-64
2022/06/03 13:27:05;;;;;;;5.10;4.43;;;27.50;96.80;;;;;;5013842;28;20564;-64
2022/06/03 13:30:05;;;;;;;4.87;4.40;;;27.40;96.70;;;;;;5013894;28;20472;-65
2022/06/03 13:32:57;;;;;;;4.93;4.50;;;27.40;97.50;;;;;;5011799;28;20603;-66
2022/06/03 13:35:27;;;;;;;4.70;4.40;;;27.30;97.30;;;;;;5013895;28;20771;-66
2022/06/03 13:38:16;;;;;;;6.20;5.30;;;27.30;99.40;;;;;;5014021;28;20453;-66
2022/06/03 13:42:57;;;;;;;4.83;4.53;;;27.20;99.90;;;;;;5016474;28;20472;-66
2022/06/03 13:43:29;;;;;;;6.30;5.80;;;27.10;99.90;;;;;;5021419;28;20524;-66
2022/06/03 13:46:08;;;;;;;6.43;5.93;;;26.80;99.90;;;;;;5014101;28;20548;-66
2022/06/03 13:48:45;;;;;;;6.67;6.17;;;26.40;99.90;;;;;;5013600;28;20188;-65
2022/06/03 13:51:32;;;;;;;7.20;6.60;;;26.20;99.90;;;;;;5013475;28;20530;-65
2022/06/03 13:54:06;;;;;;;9.90;7.87;;;26.00;99.90;;;;;;5013318;28;20900;-65
2022/06/03 13:56:34;;;;;;;7.57;6.90;;;25.80;99.90;;;;;;5017128;28;20441;-65
2022/06/03 13:59:04;;;;;;;7.10;6.60;;;25.70;99.90;;;;;;5017551;28;20510;-65
2022/06/03 14:01:40;;;;;;;8.33;6.50;;;25.60;99.90;;;;;;5016923;28;20480;-66
2022/06/03 14:04:15;;;;;;;12.83;6.73;;;25.60;99.90;;;;;;5017298;28;20869;-65
2022/06/03 14:06:45;;;;;;;6.20;5.73;;;25.60;99.90;;;;;;5017351;28;20857;-65
2022/06/03 14:09:20;;;;;;;7.20;6.70;;;25.60;99.90;;;;;;5018212;28;20488;-65
2022/06/03 14:11:50;;;;;;;7.20;6.60;;;25.60;99.90;;;;;;5017222;28;20480;-66
2022/06/03 14:14:24;;;;;;;7.03;6.47;;;25.70;99.90;;;;;;5017775;28;20461;-66
2022/06/03 14:17:02;;;;;;;14.80;13.30;;;25.70;99.90;;;;;;5017727;28;20444;-66
2022/06/03 14:19:46;;;;;;;7.93;7.23;;;25.80;99.90;;;;;;5017578;28;20441;-66
2022/06/03 14:22:21;;;;;;;6.60;6.00;;;25.80;99.90;;;;;;5016073;28;20841;-66
2022/06/03 14:24:57;;;;;;;6.60;6.20;;;25.90;99.90;;;;;;5016992;28;20934;-64
2022/06/03 14:27:30;;;;;;;6.90;6.30;;;25.90;99.90;;;;;;5016746;28;20441;-64
2022/06/03 14:30:02;;;;;;;6.93;6.43;;;26.00;99.90;;;;;;5017016;28;20440;-65
2022/06/03 14:32:35;;;;;;;6.10;5.50;;;26.00;99.90;;;;;;5016945;28;20477;-67
2022/06/03 14:35:08;;;;;;;6.60;6.10;;;26.10;99.90;;;;;;5018126;28;20487;-66
2022/06/03 14:37:41;;;;;;;7.00;6.40;;;26.10;99.90;;;;;;5016977;28;20450;-66
2022/06/03 14:40:16;;;;;;;7.03;6.30;;;26.10;99.90;;;;;;5016881;28;20499;-66
2022/06/03 14:42:44;;;;;;;8.10;7.40;;;26.20;99.90;;;;;;5016570;28;20919;-68
2022/06/03 14:45:14;;;;;;;6.90;6.50;;;26.20;99.90;;;;;;5016760;28;20477;-66
2022/06/03 14:47:45;;;;;;;7.30;6.70;;;26.20;99.90;;;;;;5016853;28;20469;-68
2022/06/03 14:50:17;;;;;;;6.70;6.10;;;26.20;99.90;;;;;;5016731;28;20448;-67
2022/06/03 14:52:50;;;;;;;7.03;6.50;;;26.30;99.90;;;;;;5016925;28;20438;-67
2022/06/03 14:55:22;;;;;;;6.83;6.20;;;26.40;99.90;;;;;;5016511;28;20445;-68
2022/06/03 14:57:52;;;;;;;8.23;6.00;;;26.50;99.90;;;;;;5016522;28;20461;-67
2022/06/03 15:00:29;;;;;;;5.43;5.03;;;26.60;99.90;;;;;;5016539;28;20441;-66
2022/06/03 15:03:03;;;;;;;5.53;5.13;;;26.80;99.90;;;;;;5016540;28;20451;-65
2022/06/03 15:05:38;;;;;;;6.83;5.53;;;27.00;99.90;;;;;;5016183;28;20465;-65
2022/06/03 15:08:08;;;;;;;5.77;5.27;;;27.10;99.90;;;;;;5015306;28;20839;-65
2022/06/03 15:10:39;;;;;;;5.83;5.47;;;27.30;99.90;;;;;;5016046;28;20480;-66
2022/06/03 15:13:06;;;;;;;6.07;5.73;;;27.60;99.90;;;;;;5016147;28;20441;-65
2022/06/03 15:15:35;;;;;;;5.90;5.50;;;27.70;99.90;;;;;;5016436;28;20457;-65
2022/06/03 15:18:11;;;;;;;8.87;5.93;;;27.90;99.90;;;;;;5016019;28;20453;-65
2022/06/03 15:20:38;;;;;;;5.10;4.70;;;27.90;99.90;;;;;;5016511;28;20472;-65
2022/06/03 15:23:06;;;;;;;5.20;4.77;;;28.10;99.90;;;;;;5015843;28;20448;-65
2022/06/03 15:25:42;;;;;;;4.80;4.50;;;28.10;99.90;;;;;;5015960;28;20560;-66
2022/06/03 15:28:11;;;;;;;4.60;4.20;;;28.20;99.90;;;;;;5016432;28;20444;-65
2022/06/03 15:30:41;;;;;;;6.00;4.90;;;28.30;99.90;;;;;;5016314;28;20480;-66
2022/06/03 15:33:12;;;;;;;5.17;4.77;;;28.40;99.90;;;;;;5016688;28;20809;-66
2022/06/03 15:35:39;;;;;;;7.10;5.00;;;28.60;99.60;;;;;;5015400;28;20845;-66
2022/06/03 15:38:13;;;;;;;9.70;4.70;;;28.60;98.60;;;;;;5015764;28;20457;-66
2022/06/03 15:40:43;;;;;;;5.40;4.63;;;28.50;98.30;;;;;;5015774;28;20491;-66
2022/06/03 15:43:13;;;;;;;6.20;5.57;;;28.50;97.80;;;;;;5015758;28;20445;-66
2022/06/03 15:45:45;;;;;;;4.70;4.40;;;28.40;98.40;;;;;;5015571;28;20462;-66
2022/06/03 15:48:16;;;;;;;6.13;5.20;;;28.40;97.80;;;;;;5015443;28;20444;-66
2022/06/03 15:50:47;;;;;;;5.23;4.73;;;28.30;98.10;;;;;;5015898;28;20992;-66
2022/06/03 15:53:24;;;;;;;7.60;4.70;;;28.20;97.90;;;;;;5015824;28;20459;-66
2022/06/03 15:56:04;;;;;;;4.90;4.60;;;28.10;98.20;;;;;;5015578;28;20432;-66
2022/06/03 15:58:51;;;;;;;5.63;5.07;;;28.10;98.50;;;;;;5015504;28;20448;-66
2022/06/03 16:01:26;;;;;;;6.57;5.30;;;28.00;99.00;;;;;;5015340;28;20489;-65
2022/06/03 16:04:00;;;;;;;9.10;5.83;;;28.00;99.60;;;;;;5015042;28;20904;-65
2022/06/03 16:06:35;;;;;;;6.40;5.90;;;28.00;99.60;;;;;;5015341;28;20461;-65
2022/06/03 16:09:11;;;;;;;6.43;5.30;;;28.00;99.90;;;;;;5015149;28;20448;-65
2022/06/03 16:11:52;;;;;;;6.50;5.90;;;28.00;99.90;;;;;;5015094;28;20480;-65
2022/06/03 16:14:26;;;;;;;6.10;5.37;;;28.00;99.90;;;;;;5014814;28;20841;-65
2022/06/03 16:17:13;;;;;;;6.13;5.63;;;28.00;99.90;;;;;;5014658;28;20837;-65
2022/06/03 16:19:59;;;;;;;6.37;6.07;;;28.00;99.90;;;;;;5014203;28;20507;-66
2022/06/03 16:22:48;;;;;;;6.63;5.50;;;27.90;99.90;;;;;;5014942;28;20813;-65
2022/06/03 16:25:20;;;;;;;5.80;5.40;;;27.80;99.90;;;;;;5014790;28;20889;-66
2022/06/03 16:28:04;;;;;;;5.60;5.10;;;27.80;99.90;;;;;;5014811;28;20441;-66
2022/06/03 16:30:41;;;;;;;6.10;5.70;;;27.80;99.90;;;;;;5015320;28;20445;-66
2022/06/03 16:33:20;;;;;;;7.63;6.30;;;27.80;99.90;;;;;;5014613;28;20476;-66
2022/06/03 16:35:54;;;;;;;5.70;5.40;;;27.80;99.90;;;;;;5014436;28;20444;-65
2022/06/03 16:38:26;;;;;;;6.57;6.17;;;27.80;99.90;;;;;;5014611;28;20437;-67
2022/06/03 16:41:03;;;;;;;6.20;5.80;;;27.80;99.90;;;;;;5014287;28;20477;-66
2022/06/03 16:43:40;;;;;;;5.73;5.20;;;27.80;99.80;;;;;;5014511;28;20433;-65
2022/06/03 16:46:16;;;;;;;5.70;5.33;;;27.70;99.90;;;;;;5015036;28;20465;-65
2022/06/03 16:49:14;;;;;;;5.67;5.30;;;27.60;99.40;;;;;;5014681;28;20437;-65
2022/06/03 16:51:48;;;;;;;6.23;5.73;;;27.50;99.90;;;;;;5014255;28;20476;-66
2022/06/03 16:54:24;;;;;;;5.87;5.43;;;27.40;99.90;;;;;;5014419;28;20477;-65
2022/06/03 16:57:00;;;;;;;5.60;5.20;;;27.40;99.90;;;;;;5014304;28;20476;-65
2022/06/03 16:59:28;;;;;;;5.83;5.33;;;27.30;99.90;;;;;;5015015;28;20445;-65
2022/06/03 17:01:55;;;;;;;5.77;5.37;;;27.30;99.90;;;;;;5013988;28;20484;-66
2022/06/03 17:04:25;;;;;;;5.60;5.30;;;27.20;99.90;;;;;;5014717;28;20453;-64
2022/06/03 17:06:55;;;;;;;7.00;5.80;;;27.20;99.90;;;;;;5013917;28;20465;-65
2022/06/03 17:09:25;;;;;;;6.13;5.67;;;27.10;99.90;;;;;;5013757;28;20456;-65
2022/06/03 17:11:52;;;;;;;5.93;5.53;;;27.00;99.90;;;;;;5014046;28;20480;-65
2022/06/03 17:14:23;;;;;;;8.37;5.77;;;27.00;99.90;;;;;;5014085;28;20797;-65
2022/06/03 17:16:59;;;;;;;7.60;5.93;;;27.00;99.90;;;;;;5015671;28;20444;-65
2022/06/03 17:19:26;;;;;;;6.47;5.97;;;26.90;99.90;;;;;;5015287;28;20447;-65
2022/06/03 17:22:02;;;;;;;6.47;6.00;;;26.80;99.90;;;;;;5014478;28;20472;-65
2022/06/03 17:24:50;;;;;;;5.90;5.47;;;26.80;99.90;;;;;;5014775;28;20437;-64
2022/06/03 17:27:30;;;;;;;5.67;5.17;;;26.70;99.90;;;;;;5014596;28;20900;-65
2022/06/03 17:30:04;;;;;;;5.77;4.90;;;26.60;99.80;;;;;;5015155;28;20907;-64
2022/06/03 17:32:37;;;;;;;5.00;4.60;;;26.40;99.60;;;;;;5018458;28;20476;-64
2022/06/03 17:35:24;;;;;;;5.47;5.07;;;26.20;99.90;;;;;;5018518;28;20519;-64
2022/06/03 17:38:18;;;;;;;5.70;5.20;;;26.10;99.80;;;;;;5012760;28;20800;-64
2022/06/03 17:40:51;;;;;;;4.60;4.30;;;26.00;99.90;;;;;;5018509;28;21004;-64
2022/06/03 17:43:28;;;;;;;5.47;5.07;;;25.90;99.90;;;;;;5018899;28;20432;-63
2022/06/03 17:46:02;;;;;;;5.37;4.93;;;25.70;99.80;;;;;;5018596;28;20993;-63
2022/06/03 17:48:45;;;;;;;6.00;5.33;;;25.50;99.90;;;;;;5018307;28;20433;-65
2022/06/03 17:57:04;;;;;;;5.80;5.27;;;25.10;99.90;;;;;;5017567;28;20764;-64
2022/06/03 17:59:39;;;;;;;7.40;5.50;;;24.90;99.90;;;;;;5017344;28;20962;-64
2022/06/03 18:02:30;;;;;;;7.47;5.00;;;24.90;99.90;;;;;;5017257;28;20484;-64
2022/06/03 18:05:07;;;;;;;5.60;5.20;;;24.70;99.90;;;;;;5018041;28;20441;-63
2022/06/03 18:07:47;;;;;;;5.80;5.30;;;24.70;99.90;;;;;;5017157;28;20799;-63
2022/06/03 18:10:27;;;;;;;5.40;5.00;;;24.70;99.90;;;;;;5017641;28;20421;-63
2022/06/03 18:12:59;;;;;;;8.57;7.07;;;24.70;99.90;;;;;;5017114;28;20912;-62
2022/06/03 18:15:29;;;;;;;7.13;6.17;;;24.70;99.90;;;;;;5017023;28;20441;-62
2022/06/03 18:17:59;;;;;;;7.07;6.57;;;24.70;99.90;;;;;;5017030;28;20488;-62
2022/06/03 18:20:40;;;;;;;11.90;6.60;;;24.70;99.90;;;;;;5017091;28;20507;-63